createdAt,value
2019-05-26T00:04:23.166Z,8.7
2019-05-26T00:09:19.601Z,8.8
2019-05-26T00:14:16.077Z,8.8
2019-05-26T00:19:12.525Z,8.9
2019-05-26T00:24:08.640Z,9.1
2019-05-26T00:29:04.992Z,9.1
2019-05-26T00:34:01.544Z,9
2019-05-26T00:38:57.805Z,9
2019-05-26T00:43:54.142Z,8.6
2019-05-26T00:48:50.593Z,8.4
2019-05-26T00:53:46.961Z,8.4
2019-05-26T00:58:43.239Z,8.2
2019-05-26T01:03:39.609Z,8.1
2019-05-26T01:08:35.980Z,8
2019-05-26T01:13:32.157Z,8
2019-05-26T01:18:28.104Z,7.9
2019-05-26T01:23:24.328Z,7.7
2019-05-26T01:28:20.534Z,7.9
2019-05-26T01:33:16.898Z,7.8
2019-05-26T01:38:22.934Z,7.8
2019-05-26T01:43:09.280Z,7.7
2019-05-26T01:48:05.493Z,7.7
2019-05-26T01:53:01.940Z,7.7
2019-05-26T01:57:58.147Z,7.4
2019-05-26T02:02:54.518Z,7.5
2019-05-26T02:07:50.684Z,7.5
2019-05-26T02:12:46.937Z,7.4
2019-05-26T02:17:43.256Z,7.3
2019-05-26T02:22:39.445Z,7.4
2019-05-26T02:27:35.728Z,7.3
2019-05-26T02:32:32.015Z,7.1
2019-05-26T02:37:28.210Z,7.1
2019-05-26T02:42:24.420Z,7
2019-05-26T02:47:20.784Z,7
2019-05-26T02:52:17.211Z,7
2019-05-26T02:57:13.524Z,7.1
2019-05-26T03:02:09.747Z,7.1
2019-05-26T03:07:06.036Z,7.2
2019-05-26T03:12:02.164Z,7.3
2019-05-26T03:16:58.505Z,7.3
2019-05-26T03:21:54.802Z,7.9
2019-05-26T03:26:51.329Z,8.9
2019-05-26T03:31:47.472Z,9.1
2019-05-26T03:36:44.199Z,11.7
2019-05-26T03:41:41.243Z,12.5
2019-05-26T03:46:38.430Z,14.1
2019-05-26T03:51:35.836Z,15.1
2019-05-26T03:56:33.480Z,15.3
2019-05-26T04:01:30.967Z,16
2019-05-26T04:06:28.094Z,17
2019-05-26T04:11:25.408Z,18.3
2019-05-26T04:16:22.952Z,17.6
2019-05-26T04:21:20.251Z,18.9
2019-05-26T04:26:17.786Z,19.5
2019-05-26T04:31:14.790Z,19.8
2019-05-26T04:36:12.026Z,20.6
2019-05-26T04:41:09.324Z,21.2
2019-05-26T04:46:06.627Z,21.4
2019-05-26T04:51:03.776Z,23.1
2019-05-26T04:56:00.937Z,22.1
2019-05-26T05:00:57.868Z,22.5
2019-05-26T05:05:54.832Z,21.1
2019-05-26T05:10:51.769Z,22
2019-05-26T05:15:48.759Z,23.4
2019-05-26T05:20:45.905Z,22.8
2019-05-26T05:25:42.920Z,21.8
2019-05-26T05:30:39.732Z,23.2
2019-05-26T05:35:36.222Z,24.7
2019-05-26T05:40:33.232Z,24.8
2019-05-26T05:45:30.731Z,25.4
2019-05-26T05:50:28.142Z,25.3
2019-05-26T05:55:25.359Z,25.4
2019-05-26T06:00:22.148Z,25.4
2019-05-26T06:05:19.253Z,25.4
2019-05-26T06:10:16.430Z,25.7
2019-05-26T06:15:15.513Z,24.9
2019-05-26T06:20:10.186Z,25.4
2019-05-26T06:25:07.237Z,26.6
2019-05-26T06:30:04.734Z,26.9
2019-05-26T06:35:02.009Z,27.4
2019-05-26T06:39:59.343Z,27.8
2019-05-26T06:44:56.404Z,27.4
2019-05-26T06:49:53.486Z,28
2019-05-26T06:54:50.378Z,28.4
2019-05-26T06:59:47.263Z,28.3
2019-05-26T07:04:44.290Z,28.7
2019-05-26T07:09:41.153Z,29.7
2019-05-26T07:14:37.831Z,29.5
2019-05-26T07:19:35.097Z,29.1
2019-05-26T07:24:32.143Z,29.6
2019-05-26T07:29:29.111Z,30.9
2019-05-26T07:34:26.218Z,30.4
2019-05-26T07:39:23.102Z,31.1
2019-05-26T07:44:20.115Z,31.6
2019-05-26T07:49:17.330Z,33.7
2019-05-26T07:54:24.846Z,32.7
2019-05-26T07:59:11.600Z,32.5
2019-05-26T08:04:08.626Z,33.8
2019-05-26T08:09:05.658Z,33.7
2019-05-26T08:14:02.404Z,32.3
2019-05-26T08:18:59.093Z,32.9
2019-05-26T08:23:56.025Z,33
2019-05-26T08:28:53.124Z,33.6
2019-05-26T08:33:50.095Z,35
2019-05-26T08:38:47.607Z,34.1
2019-05-26T08:43:44.876Z,34
2019-05-26T08:48:41.917Z,34.2
2019-05-26T08:53:40.185Z,35.3
2019-05-26T08:58:36.960Z,35.8
2019-05-26T09:03:33.774Z,33.2
2019-05-26T09:08:29.661Z,34.8
2019-05-26T09:13:26.608Z,36.8
2019-05-26T09:18:23.552Z,36.5
2019-05-26T09:23:19.791Z,33.3
2019-05-26T09:28:16.472Z,32.2
2019-05-26T09:33:12.468Z,33
2019-05-26T09:38:08.422Z,33.8
2019-05-26T09:43:15.434Z,35.8
2019-05-26T09:48:02.786Z,33.8
2019-05-26T09:53:00.373Z,36
2019-05-26T09:57:58.051Z,37
2019-05-26T10:02:56.326Z,36.8
2019-05-26T10:07:53.620Z,34.3
2019-05-26T10:12:50.789Z,34.9
2019-05-26T10:17:47.534Z,35.2
2019-05-26T10:22:44.519Z,37.3
2019-05-26T10:27:41.726Z,34.8
2019-05-26T10:32:38.694Z,36.6
2019-05-26T10:37:35.836Z,37.2
2019-05-26T10:42:33.425Z,31.6
2019-05-26T10:47:30.089Z,34.3
2019-05-26T10:52:26.626Z,34.5
2019-05-26T10:57:25.882Z,37.5
2019-05-26T11:02:23.665Z,35.8
2019-05-26T11:07:21.089Z,35.7
2019-05-26T11:12:18.433Z,33.5
2019-05-26T11:17:14.938Z,33.2
2019-05-26T11:22:10.803Z,32.7
2019-05-26T11:27:11.246Z,34.4
2019-05-26T11:32:04.171Z,31.6
2019-05-26T11:37:00.525Z,31.1
2019-05-26T11:42:04.802Z,32.3
2019-05-26T11:46:53.093Z,31.8
2019-05-26T11:51:49.454Z,32.6
2019-05-26T11:56:46.140Z,33.3
2019-05-26T12:01:43.379Z,32.5
2019-05-26T12:06:39.933Z,32.6
2019-05-26T12:11:36.604Z,35.3
2019-05-26T12:16:33.535Z,36.3
2019-05-26T12:21:30.865Z,35.7
2019-05-26T12:26:27.803Z,34.7
2019-05-26T12:31:25.039Z,33.2
2019-05-26T12:36:21.676Z,34.2
2019-05-26T12:41:17.750Z,35.4
2019-05-26T12:46:14.863Z,35.5
2019-05-26T12:51:11.852Z,33.5
2019-05-26T12:56:07.780Z,32.7
2019-05-26T13:01:04.337Z,34.2
2019-05-26T13:06:01.469Z,34.5
2019-05-26T13:10:58.414Z,34
2019-05-26T13:15:54.772Z,32.6
2019-05-26T13:20:51.092Z,33.1
2019-05-26T13:25:47.348Z,32.5
2019-05-26T13:30:43.858Z,34.4
2019-05-26T13:35:40.554Z,37
2019-05-26T13:40:38.142Z,36.1
2019-05-26T13:45:35.281Z,32.2
2019-05-26T13:50:31.276Z,34
2019-05-26T13:55:27.637Z,31.1
2019-05-26T14:00:23.606Z,29.7
2019-05-26T14:05:19.059Z,28.6
2019-05-26T14:10:14.795Z,27.4
2019-05-26T14:15:10.865Z,28.5
2019-05-26T14:20:07.270Z,31
2019-05-26T14:25:04.172Z,32.2
2019-05-26T14:30:00.982Z,29.8
2019-05-26T14:34:57.057Z,28.5
2019-05-26T14:39:53.237Z,28.3
2019-05-26T14:44:49.603Z,27.5
2019-05-26T14:49:46.720Z,27
2019-05-26T14:54:43.268Z,25.7
2019-05-26T14:59:39.448Z,26
2019-05-26T15:04:35.669Z,26
2019-05-26T15:09:32.238Z,26.4
2019-05-26T15:14:28.651Z,26.4
2019-05-26T15:19:25.224Z,26.1
2019-05-26T15:24:21.746Z,25.8
2019-05-26T15:29:18.532Z,26.1
2019-05-26T15:34:14.819Z,24.9
2019-05-26T15:39:11.285Z,24.8
2019-05-26T15:44:07.713Z,24
2019-05-26T15:49:03.807Z,23.5
2019-05-26T15:53:59.932Z,23.3
2019-05-26T15:58:56.320Z,23.2
2019-05-26T16:03:52.654Z,23.4
2019-05-26T16:08:48.964Z,23.6
2019-05-26T16:13:45.410Z,23.6
2019-05-26T16:18:42.050Z,23.6
2019-05-26T16:23:38.471Z,23.4
2019-05-26T16:28:35.062Z,22.8
2019-05-26T16:33:31.548Z,22.4
2019-05-26T16:38:27.742Z,22.1
2019-05-26T16:43:24.067Z,21.4
2019-05-26T16:48:20.671Z,21
2019-05-26T16:53:17.050Z,21.1
2019-05-26T16:58:13.188Z,21
2019-05-26T17:03:09.862Z,20.8
2019-05-26T17:08:06.272Z,20.3
2019-05-26T17:13:02.922Z,19.9
2019-05-26T17:17:59.067Z,19.9
2019-05-26T17:22:55.544Z,20.2
2019-05-26T17:27:52.064Z,20.1
2019-05-26T17:32:48.331Z,20
2019-05-26T17:37:44.819Z,20
2019-05-26T17:42:40.916Z,19.9
2019-05-26T17:47:37.112Z,19.4
2019-05-26T17:52:33.587Z,19.4
2019-05-26T17:57:30.056Z,18.3
2019-05-26T18:02:26.193Z,17.9
2019-05-26T18:07:22.624Z,18.2
2019-05-26T18:12:18.984Z,19.1
2019-05-26T18:17:15.667Z,19.2
2019-05-26T18:22:12.326Z,19.4
2019-05-26T18:27:09.126Z,19.5
2019-05-26T18:32:05.762Z,19.2
2019-05-26T18:37:01.659Z,19.1
2019-05-26T18:41:58.239Z,19.3
2019-05-26T18:46:55.041Z,19.3
2019-05-26T18:51:51.784Z,19.8
2019-05-26T18:56:47.998Z,19.8
2019-05-26T19:01:44.777Z,19.8
2019-05-26T19:06:41.294Z,19.7
2019-05-26T19:11:38.085Z,19.7
2019-05-26T19:16:34.493Z,19.7
2019-05-26T19:21:30.765Z,19.8
2019-05-26T19:26:27.221Z,19.7
2019-05-26T19:31:23.847Z,19.5
2019-05-26T19:36:20.588Z,19.2
2019-05-26T19:41:17.115Z,19.4
2019-05-26T19:46:13.508Z,18.9
2019-05-26T19:51:10.091Z,18.5
2019-05-26T19:56:06.638Z,18.4
2019-05-26T20:01:03.191Z,18.2
2019-05-26T20:05:59.686Z,17.8
2019-05-26T20:10:56.196Z,17.4
2019-05-26T20:15:52.344Z,17.6
2019-05-26T20:20:48.788Z,17.9
2019-05-26T20:25:45.225Z,17.8
2019-05-26T20:30:41.658Z,17.8
2019-05-26T20:35:38.403Z,17.7
2019-05-26T20:40:34.837Z,18.1
2019-05-26T20:45:31.505Z,18.2
2019-05-26T20:50:29.713Z,18
2019-05-26T20:55:24.724Z,17.9
2019-05-26T21:00:21.293Z,17.7
2019-05-26T21:05:17.930Z,17.5
2019-05-26T21:10:13.964Z,17.6
2019-05-26T21:15:10.614Z,17.7
2019-05-26T21:20:06.685Z,17.5
2019-05-26T21:25:03.132Z,17.7
2019-05-26T21:29:59.232Z,17.2
2019-05-26T21:34:55.628Z,17
2019-05-26T21:39:52.069Z,16.9
2019-05-26T21:44:48.368Z,16.5
2019-05-26T21:49:44.804Z,16.2
2019-05-26T21:54:41.502Z,16.8
2019-05-26T21:59:37.719Z,16.3
2019-05-26T22:04:33.618Z,16
2019-05-26T22:09:29.926Z,15.3
2019-05-26T22:14:26.298Z,14.8
2019-05-26T22:19:22.560Z,14.5
2019-05-26T22:24:18.270Z,15.1
2019-05-26T22:29:14.621Z,15
2019-05-26T22:34:11.041Z,14.5
2019-05-26T22:39:07.124Z,14.3
2019-05-26T22:44:03.542Z,14
2019-05-26T22:48:59.732Z,13.9
2019-05-26T22:53:56.102Z,14
2019-05-26T22:58:52.507Z,13.9
2019-05-26T23:03:48.832Z,14.1
2019-05-26T23:08:45.219Z,14.3
2019-05-26T23:13:41.543Z,14.7
2019-05-26T23:18:37.739Z,15.2
2019-05-26T23:23:34.393Z,15.6
2019-05-26T23:28:31.232Z,16.2
2019-05-26T23:33:27.829Z,16.1
2019-05-26T23:38:24.553Z,15.9
2019-05-26T23:43:21.179Z,15.8
2019-05-26T23:48:17.709Z,15.1
2019-05-26T23:53:14.019Z,14.5
2019-05-26T23:58:10.302Z,14
